createdAt,value
2019-03-09T00:01:31.649Z,8.40
2019-03-09T00:04:01.736Z,8.40
2019-03-09T00:06:31.687Z,8.40
2019-03-09T00:09:01.489Z,8.30
2019-03-09T00:11:31.344Z,8.30
2019-03-09T00:14:01.122Z,8.30
2019-03-09T00:16:31.281Z,8.40
2019-03-09T00:19:00.880Z,8.40
2019-03-09T00:21:30.525Z,8.40
2019-03-09T00:24:34.169Z,8.40
2019-03-09T00:27:29.456Z,8.50
2019-03-09T00:29:59.737Z,8.40
2019-03-09T00:32:29.428Z,8.40
2019-03-09T00:34:59.017Z,8.40
2019-03-09T00:37:28.753Z,8.40
2019-03-09T00:39:58.462Z,8.40
2019-03-09T00:42:30.967Z,8.40
2019-03-09T00:45:00.734Z,8.40
2019-03-09T00:47:30.555Z,8.30
2019-03-09T00:50:00.358Z,8.40
2019-03-09T00:52:29.998Z,8.30
2019-03-09T00:54:59.684Z,8.40
2019-03-09T00:57:29.259Z,8.30
2019-03-09T00:59:59.357Z,8.40
2019-03-09T01:02:29.426Z,8.30
2019-03-09T01:05:00.082Z,8.30
2019-03-09T01:07:29.894Z,8.30
2019-03-09T01:09:59.592Z,8.30
2019-03-09T01:12:29.389Z,8.20
2019-03-09T01:14:59.030Z,8.20
2019-03-09T01:17:30.045Z,8.20
2019-03-09T01:19:59.834Z,8.20
2019-03-09T01:22:29.501Z,8.20
2019-03-09T01:24:59.372Z,8.10
2019-03-09T01:27:28.942Z,8.10
2019-03-09T01:29:58.545Z,8.10
2019-03-09T01:32:28.269Z,8.10
2019-03-09T01:34:57.880Z,8.10
2019-03-09T01:37:27.533Z,8.00
2019-03-09T01:39:57.228Z,8.00
2019-03-09T01:42:28.280Z,7.90
2019-03-09T01:44:58.073Z,8.00
2019-03-09T01:47:27.688Z,8.00
2019-03-09T01:49:57.380Z,7.90
2019-03-09T01:52:27.061Z,7.90
2019-03-09T01:54:56.803Z,7.90
2019-03-09T01:57:31.642Z,7.90
2019-03-09T02:00:01.359Z,7.90
2019-03-09T02:02:31.031Z,7.80
2019-03-09T02:05:00.719Z,7.80
2019-03-09T02:07:30.316Z,7.80
2019-03-09T02:10:00.254Z,7.70
2019-03-09T02:12:30.065Z,7.70
2019-03-09T02:14:59.733Z,7.70
2019-03-09T02:17:29.530Z,7.70
2019-03-09T02:19:59.273Z,7.70
2019-03-09T02:22:28.943Z,7.80
2019-03-09T02:24:58.735Z,7.70
2019-03-09T02:27:28.574Z,7.70
2019-03-09T02:29:58.454Z,7.70
2019-03-09T02:32:31.564Z,7.70
2019-03-09T02:35:01.355Z,7.80
2019-03-09T02:37:31.131Z,7.70
2019-03-09T02:40:16.025Z,7.80
2019-03-09T02:42:53.546Z,7.70
2019-03-09T02:45:23.421Z,7.70
2019-03-09T02:47:53.184Z,7.70
2019-03-09T02:50:23.799Z,7.70
2019-03-09T02:52:53.339Z,7.70
2019-03-09T02:55:22.927Z,7.70
2019-03-09T02:57:52.616Z,7.70
2019-03-09T03:00:22.326Z,7.70
2019-03-09T03:02:54.945Z,7.70
2019-03-09T03:05:24.435Z,7.70
2019-03-09T03:07:54.102Z,7.70
2019-03-09T03:10:23.750Z,7.80
2019-03-09T03:12:53.275Z,7.80
2019-03-09T03:15:33.472Z,7.80
2019-03-09T03:18:03.139Z,7.80
2019-03-09T03:20:33.069Z,7.80
2019-03-09T03:23:02.653Z,7.80
2019-03-09T03:25:32.445Z,7.90
2019-03-09T03:28:02.273Z,7.90
2019-03-09T03:30:32.127Z,7.90
2019-03-09T03:33:02.221Z,8.00
2019-03-09T03:35:32.068Z,7.90
2019-03-09T03:38:04.141Z,7.90
2019-03-09T03:40:37.348Z,8.00
2019-03-09T03:43:09.243Z,8.00
2019-03-09T03:45:44.319Z,8.00
2019-03-09T03:48:15.821Z,8.10
2019-03-09T03:50:46.403Z,8.10
2019-03-09T03:53:18.436Z,8.10
2019-03-09T03:55:49.472Z,8.20
2019-03-09T03:58:22.107Z,8.20
2019-03-09T04:00:55.872Z,8.20
2019-03-09T04:03:27.562Z,8.20
2019-03-09T04:05:57.896Z,8.20
2019-03-09T04:08:29.287Z,8.30
2019-03-09T04:10:59.798Z,8.30
2019-03-09T04:13:30.313Z,8.30
2019-03-09T04:16:04.622Z,8.30
2019-03-09T04:18:35.163Z,8.30
2019-03-09T04:21:06.838Z,8.40
2019-03-09T04:23:37.920Z,8.50
2019-03-09T04:26:07.935Z,8.50
2019-03-09T04:28:37.945Z,8.50
2019-03-09T04:31:08.848Z,8.60
2019-03-09T04:33:40.190Z,8.60
2019-03-09T04:36:10.207Z,8.60
2019-03-09T04:38:41.392Z,8.70
2019-03-09T04:41:11.649Z,8.70
2019-03-09T04:43:41.870Z,8.70
2019-03-09T04:46:12.220Z,8.70
2019-03-09T04:48:46.767Z,8.60
2019-03-09T04:51:21.018Z,8.70
2019-03-09T04:53:51.064Z,8.60
2019-03-09T04:56:21.220Z,8.70
2019-03-09T04:58:51.211Z,8.70
2019-03-09T05:01:21.045Z,8.60
2019-03-09T05:04:30.243Z,8.60
2019-03-09T05:07:00.001Z,8.60
2019-03-09T05:10:09.223Z,8.50
2019-03-09T05:12:38.817Z,8.50
2019-03-09T05:15:09.965Z,8.60
2019-03-09T05:17:39.747Z,8.60
2019-03-09T05:20:09.643Z,8.70
2019-03-09T05:22:39.361Z,8.60
2019-03-09T05:25:08.923Z,8.60
2019-03-09T05:27:38.577Z,8.60
2019-03-09T05:30:10.012Z,8.60
2019-03-09T05:32:39.641Z,8.50
2019-03-09T05:35:09.323Z,8.50
2019-03-09T05:37:43.171Z,8.50
2019-03-09T05:40:10.191Z,8.50
2019-03-09T05:42:39.885Z,8.50
2019-03-09T05:45:09.619Z,8.40
2019-03-09T05:47:39.181Z,8.40
2019-03-09T05:50:08.820Z,8.40
2019-03-09T05:52:38.722Z,8.40
2019-03-09T05:55:28.766Z,8.30
2019-03-09T05:57:58.240Z,8.30
2019-03-09T06:00:27.937Z,8.30
2019-03-09T06:02:57.839Z,8.30
2019-03-09T06:05:38.372Z,8.30
2019-03-09T06:08:08.727Z,8.30
2019-03-09T06:10:38.565Z,8.40
2019-03-09T06:13:08.478Z,8.40
2019-03-09T06:15:38.306Z,8.50
2019-03-09T06:18:08.021Z,8.60
2019-03-09T06:20:41.106Z,8.70
2019-03-09T06:23:10.900Z,8.80
2019-03-09T06:25:40.590Z,8.80
2019-03-09T06:28:10.290Z,8.80
2019-03-09T06:30:40.018Z,8.90
2019-03-09T06:33:42.835Z,8.90
2019-03-09T06:36:38.809Z,8.90
2019-03-09T06:39:15.359Z,8.90
2019-03-09T06:42:05.924Z,8.90
2019-03-09T06:44:35.503Z,8.90
2019-03-09T06:47:05.334Z,8.90
2019-03-09T06:49:34.955Z,8.90
2019-03-09T06:52:07.691Z,8.80
2019-03-09T06:54:37.582Z,8.90
2019-03-09T06:57:13.947Z,8.90
2019-03-09T06:59:38.821Z,8.90
2019-03-09T07:02:08.564Z,8.90
2019-03-09T07:04:38.182Z,8.90
2019-03-09T07:07:07.957Z,8.90
2019-03-09T07:09:37.792Z,8.90
2019-03-09T07:12:07.615Z,8.80
2019-03-09T07:15:12.083Z,8.80
2019-03-09T07:17:43.156Z,8.80
2019-03-09T07:20:13.177Z,8.70
2019-03-09T07:22:42.986Z,8.80
2019-03-09T07:25:12.835Z,8.80
2019-03-09T07:27:42.702Z,8.90
2019-03-09T07:30:17.486Z,9.00
2019-03-09T07:32:50.573Z,9.10
2019-03-09T07:35:20.545Z,9.30
2019-03-09T07:37:53.427Z,9.50
2019-03-09T07:40:25.185Z,9.60
2019-03-09T07:42:54.941Z,9.70
2019-03-09T07:45:24.764Z,9.80
2019-03-09T07:47:54.674Z,9.80
2019-03-09T07:50:24.407Z,9.90
2019-03-09T07:52:54.216Z,10.00
2019-03-09T07:55:24.127Z,10.00
2019-03-09T07:58:04.082Z,10.10
2019-03-09T08:00:33.977Z,10.20
2019-03-09T08:03:03.665Z,10.30
2019-03-09T08:05:33.464Z,10.30
2019-03-09T08:08:03.271Z,10.40
2019-03-09T08:10:33.136Z,10.40
2019-03-09T08:13:02.890Z,10.30
2019-03-09T08:15:33.739Z,10.20
2019-03-09T08:18:03.574Z,10.30
2019-03-09T08:20:33.317Z,10.40
2019-03-09T08:23:03.093Z,10.60
2019-03-09T08:25:34.162Z,10.70
2019-03-09T08:28:03.953Z,10.80
2019-03-09T08:30:33.836Z,10.90
2019-03-09T08:33:03.964Z,11.00
2019-03-09T08:35:33.865Z,11.10
2019-03-09T08:38:03.579Z,11.10
2019-03-09T08:40:33.371Z,11.10
2019-03-09T08:43:03.065Z,11.10
2019-03-09T08:45:32.831Z,11.00
2019-03-09T08:48:04.472Z,11.10
2019-03-09T08:50:33.925Z,11.10
2019-03-09T08:53:03.676Z,11.10
2019-03-09T08:55:33.843Z,11.20
2019-03-09T08:58:03.641Z,11.30
2019-03-09T09:00:33.890Z,11.30
2019-03-09T09:03:03.659Z,11.20
2019-03-09T09:05:33.381Z,11.20
2019-03-09T09:08:03.980Z,11.30
2019-03-09T09:10:33.957Z,11.50
2019-03-09T09:13:03.764Z,11.50
2019-03-09T09:15:33.438Z,11.50
2019-03-09T09:18:03.271Z,11.60
2019-03-09T09:20:32.858Z,11.70
2019-03-09T09:23:02.628Z,11.80
2019-03-09T09:25:32.917Z,11.80
2019-03-09T09:28:03.630Z,11.90
2019-03-09T09:30:36.133Z,12.00
2019-03-09T09:33:05.911Z,12.10
2019-03-09T09:35:35.543Z,12.00
2019-03-09T09:38:05.146Z,12.00
2019-03-09T09:40:34.760Z,12.10
2019-03-09T09:43:04.381Z,12.30
2019-03-09T09:45:33.948Z,12.20
2019-03-09T09:48:13.051Z,11.90
2019-03-09T09:50:43.215Z,11.90
2019-03-09T09:53:12.862Z,11.90
2019-03-09T09:55:42.704Z,11.90
2019-03-09T09:58:14.449Z,12.00
2019-03-09T10:00:45.308Z,12.20
2019-03-09T10:03:18.015Z,12.20
2019-03-09T10:05:51.323Z,12.10
2019-03-09T10:08:21.183Z,12.00
2019-03-09T10:10:51.732Z,11.90
2019-03-09T10:13:21.545Z,12.00
2019-03-09T10:15:51.284Z,11.90
2019-03-09T10:18:20.995Z,11.90
2019-03-09T10:20:53.794Z,11.90
2019-03-09T10:23:23.407Z,12.00
2019-03-09T10:25:53.163Z,12.10
2019-03-09T10:28:22.980Z,12.10
2019-03-09T10:30:53.719Z,12.10
2019-03-09T10:33:24.229Z,12.30
2019-03-09T10:35:53.878Z,12.40
2019-03-09T10:38:24.803Z,12.40
2019-03-09T10:40:54.490Z,12.50
2019-03-09T10:43:24.187Z,12.60
2019-03-09T10:45:53.927Z,12.70
2019-03-09T10:48:23.670Z,12.80
2019-03-09T10:50:55.620Z,12.80
2019-03-09T10:53:25.347Z,12.90
2019-03-09T10:55:55.117Z,12.80
2019-03-09T10:58:24.719Z,12.90
2019-03-09T11:00:54.410Z,12.90
2019-03-09T11:03:24.057Z,13.00
2019-03-09T11:05:53.782Z,13.00
2019-03-09T11:08:23.633Z,13.00
2019-03-09T11:10:53.484Z,12.90
2019-03-09T11:13:25.463Z,13.10
2019-03-09T11:15:55.181Z,13.00
2019-03-09T11:18:24.917Z,12.80
2019-03-09T11:20:54.542Z,12.70
2019-03-09T11:23:27.335Z,12.70
2019-03-09T11:25:58.215Z,12.90
2019-03-09T11:28:27.856Z,12.90
2019-03-09T11:30:57.706Z,13.10
2019-03-09T11:33:28.736Z,13.30
2019-03-09T11:35:58.361Z,13.40
2019-03-09T11:38:28.043Z,13.40
2019-03-09T11:41:00.636Z,13.50
2019-03-09T11:43:29.078Z,13.70
2019-03-09T11:45:58.906Z,13.90
2019-03-09T11:48:28.672Z,13.90
2019-03-09T11:50:58.483Z,13.80
2019-03-09T11:53:28.101Z,13.80
2019-03-09T11:55:57.806Z,13.80
2019-03-09T11:58:27.721Z,13.50
2019-03-09T12:00:59.391Z,13.40
2019-03-09T12:03:28.984Z,13.20
2019-03-09T12:05:59.705Z,13.20
2019-03-09T12:08:31.706Z,13.20
2019-03-09T12:11:01.444Z,13.10
2019-03-09T12:13:31.221Z,13.00
2019-03-09T12:16:01.050Z,12.90
2019-03-09T12:18:30.798Z,12.90
2019-03-09T12:21:00.579Z,13.10
2019-03-09T12:23:30.391Z,13.10
2019-03-09T12:26:00.076Z,13.20
2019-03-09T12:28:29.815Z,13.30
2019-03-09T12:30:59.576Z,13.20
2019-03-09T12:33:29.229Z,13.20
2019-03-09T12:35:58.964Z,13.40
2019-03-09T12:38:30.513Z,13.80
2019-03-09T12:41:00.138Z,14.20
2019-03-09T12:43:29.809Z,14.30
2019-03-09T12:45:59.624Z,14.40
2019-03-09T12:48:31.961Z,14.30
2019-03-09T12:51:03.251Z,14.10
2019-03-09T12:53:33.146Z,13.90
2019-03-09T12:56:02.875Z,13.80
2019-03-09T12:58:32.614Z,13.50
2019-03-09T13:01:02.200Z,13.60
2019-03-09T13:03:32.014Z,13.80
2019-03-09T13:06:01.894Z,13.80
2019-03-09T13:08:31.553Z,13.60
2019-03-09T13:11:01.331Z,13.50
2019-03-09T13:13:31.070Z,13.50
2019-03-09T13:16:00.779Z,13.30
2019-03-09T13:18:30.570Z,13.30
2019-03-09T13:21:02.894Z,13.30
2019-03-09T13:23:32.649Z,13.30
2019-03-09T13:26:02.503Z,13.20
2019-03-09T13:28:32.154Z,13.30
2019-03-09T13:31:03.186Z,13.30
2019-03-09T13:33:32.922Z,13.20
2019-03-09T13:36:02.567Z,13.00
2019-03-09T13:38:32.345Z,12.80
2019-03-09T13:41:02.035Z,12.70
2019-03-09T13:43:31.685Z,12.50
2019-03-09T13:46:01.524Z,12.30
2019-03-09T13:48:31.300Z,12.10
2019-03-09T13:51:00.946Z,12.00
2019-03-09T13:53:30.667Z,11.90
2019-03-09T13:56:00.346Z,11.80
2019-03-09T13:58:31.263Z,11.60
2019-03-09T14:01:01.225Z,11.30
2019-03-09T14:03:33.852Z,11.00
2019-03-09T14:06:03.900Z,10.70
2019-03-09T14:08:33.661Z,10.60
2019-03-09T14:11:03.280Z,10.60
2019-03-09T14:13:34.338Z,10.70
2019-03-09T14:16:04.015Z,10.60
2019-03-09T14:18:33.740Z,10.60
2019-03-09T14:21:03.241Z,10.70
2019-03-09T14:23:32.797Z,10.60
2019-03-09T14:26:02.353Z,10.60
2019-03-09T14:28:32.034Z,10.70
2019-03-09T14:31:01.672Z,10.90
2019-03-09T14:33:31.389Z,10.90
2019-03-09T14:36:01.124Z,10.90
2019-03-09T14:38:35.256Z,11.00
2019-03-09T14:41:04.711Z,11.00
2019-03-09T14:43:36.756Z,11.10
2019-03-09T14:46:06.533Z,11.10
2019-03-09T14:48:36.245Z,11.10
2019-03-09T14:51:08.070Z,11.00
2019-03-09T14:53:37.273Z,11.00
2019-03-09T14:56:06.975Z,11.00
2019-03-09T14:58:38.933Z,11.00
2019-03-09T15:01:09.320Z,11.00
2019-03-09T15:03:39.036Z,11.00
2019-03-09T15:06:11.534Z,10.90
2019-03-09T15:11:37.761Z,10.30
2019-03-09T15:14:07.227Z,8.40
2019-03-09T15:16:36.681Z,7.30
2019-03-09T15:19:06.025Z,7.20
2019-03-09T15:21:35.352Z,7.30
2019-03-09T15:24:05.903Z,7.40
2019-03-09T15:26:35.313Z,7.50
2019-03-09T15:29:04.631Z,7.60
2019-03-09T15:31:33.969Z,7.70
2019-03-09T15:34:03.296Z,7.70
2019-03-09T15:36:32.685Z,7.60
2019-03-09T15:39:02.079Z,7.30
2019-03-09T15:41:31.403Z,6.90
2019-03-09T15:44:00.774Z,6.80
2019-03-09T15:46:30.134Z,6.80
2019-03-09T15:48:59.578Z,6.80
2019-03-09T15:51:28.929Z,6.80
2019-03-09T15:53:58.250Z,6.90
2019-03-09T15:56:27.716Z,6.90
2019-03-09T15:58:57.099Z,7.10
2019-03-09T16:01:26.447Z,7.30
2019-03-09T16:03:57.230Z,7.30
2019-03-09T16:06:26.754Z,7.30
2019-03-09T16:08:56.040Z,7.30
2019-03-09T16:11:25.403Z,7.30
2019-03-09T16:13:55.138Z,7.20
2019-03-09T16:16:24.573Z,7.20
2019-03-09T16:18:58.789Z,7.20
2019-03-09T16:21:29.055Z,7.30
2019-03-09T16:23:59.487Z,7.30
2019-03-09T16:26:31.943Z,7.30
2019-03-09T16:29:01.759Z,7.30
2019-03-09T16:31:33.208Z,7.30
2019-03-09T16:34:15.458Z,7.30
2019-03-09T16:36:48.023Z,7.40
2019-03-09T16:39:41.177Z,7.50
2019-03-09T16:42:13.543Z,7.50
2019-03-09T16:44:47.110Z,7.50
2019-03-09T16:47:20.814Z,7.60
2019-03-09T16:50:05.919Z,7.70
2019-03-09T16:52:47.738Z,7.70
2019-03-09T16:56:13.564Z,7.70
2019-03-09T16:58:53.355Z,7.80
2019-03-09T17:01:31.863Z,7.80
2019-03-09T17:04:09.423Z,7.80
2019-03-09T17:06:43.974Z,7.90
2019-03-09T17:09:16.216Z,7.90
2019-03-09T17:11:50.306Z,7.90
2019-03-09T17:14:25.982Z,7.90
2019-03-09T17:17:09.918Z,7.90
2019-03-09T17:20:02.789Z,7.90
2019-03-09T17:22:55.356Z,7.90
2019-03-09T17:36:55.442Z,8.00
2019-03-09T18:58:44.681Z,6.80
2019-03-09T19:01:14.385Z,6.70
2019-03-09T19:03:45.476Z,6.70
2019-03-09T19:06:14.976Z,6.70
2019-03-09T19:08:44.709Z,6.70
2019-03-09T19:11:14.300Z,6.70
2019-03-09T19:13:44.026Z,6.70
2019-03-09T19:16:13.695Z,6.70
2019-03-09T19:18:43.185Z,6.70
2019-03-09T19:21:13.636Z,6.70
2019-03-09T19:23:43.442Z,6.70
2019-03-09T19:26:13.141Z,6.70
2019-03-09T19:28:47.528Z,6.70
2019-03-09T19:31:17.195Z,6.60
2019-03-09T19:33:49.596Z,6.70
2019-03-09T19:36:20.541Z,6.70
2019-03-09T19:38:50.617Z,6.70
2019-03-09T19:41:22.294Z,6.70
2019-03-09T19:43:54.711Z,6.70
2019-03-09T19:46:24.339Z,6.70
2019-03-09T19:48:55.646Z,6.70
2019-03-09T19:51:25.412Z,6.70
2019-03-09T19:53:55.607Z,6.60
2019-03-09T19:56:25.485Z,6.60
2019-03-09T19:58:55.243Z,6.60
2019-03-09T20:01:24.944Z,6.70
2019-03-09T20:03:54.695Z,6.60
2019-03-09T20:06:24.407Z,6.70
2019-03-09T20:08:56.055Z,6.70
2019-03-09T20:11:25.772Z,6.80
2019-03-09T20:13:55.434Z,6.70
2019-03-09T20:16:25.077Z,6.70
2019-03-09T20:18:54.793Z,6.70
2019-03-09T20:21:24.465Z,6.80
2019-03-09T20:23:54.126Z,6.70
2019-03-09T20:26:24.058Z,6.70
2019-03-09T20:28:53.637Z,6.70
2019-03-09T20:31:23.320Z,6.60
2019-03-09T20:33:52.887Z,6.60
2019-03-09T20:36:22.752Z,6.60
2019-03-09T20:38:52.373Z,6.60
2019-03-09T20:41:22.107Z,6.50
2019-03-09T20:43:51.828Z,6.60
2019-03-09T20:46:21.475Z,6.50
2019-03-09T20:48:51.158Z,6.60
2019-03-09T20:51:20.870Z,6.60
2019-03-09T20:53:53.485Z,6.70
2019-03-09T20:56:24.809Z,6.80
2019-03-09T20:58:54.694Z,6.90
2019-03-09T21:01:27.420Z,7.00
2019-03-09T21:03:58.211Z,7.00
2019-03-09T21:06:27.831Z,7.00
2019-03-09T21:08:57.546Z,7.10
2019-03-09T21:11:29.083Z,7.20
2019-03-09T21:13:58.550Z,7.30
2019-03-09T21:16:29.140Z,7.40
2019-03-09T21:18:58.848Z,7.40
2019-03-09T21:21:28.429Z,7.50
2019-03-09T21:23:58.093Z,7.50
2019-03-09T21:26:27.958Z,7.60
2019-03-09T21:28:57.563Z,7.50
2019-03-09T21:31:29.977Z,7.50
2019-03-09T21:33:59.626Z,7.40
2019-03-09T21:36:29.348Z,7.40
2019-03-09T21:38:59.122Z,7.40
2019-03-09T21:41:28.802Z,7.40
2019-03-09T21:43:58.534Z,7.40
2019-03-09T21:46:28.112Z,7.40
2019-03-09T21:48:57.865Z,7.50
2019-03-09T21:51:27.601Z,7.50
2019-03-09T21:53:57.252Z,7.50
2019-03-09T21:56:27.067Z,7.50
2019-03-09T21:58:56.765Z,7.50
2019-03-09T22:01:27.812Z,7.50
2019-03-09T22:03:57.678Z,7.50
2019-03-09T22:06:27.435Z,7.60
2019-03-09T22:08:57.054Z,7.60
2019-03-09T22:11:27.907Z,7.60
2019-03-09T22:13:57.678Z,7.70
2019-03-09T22:16:27.441Z,7.70
2019-03-09T22:18:57.266Z,7.70
2019-03-09T22:21:26.981Z,7.80
2019-03-09T22:23:56.943Z,7.80
2019-03-09T22:26:26.831Z,7.90
2019-03-09T22:28:56.764Z,7.90
2019-03-09T22:31:26.719Z,8.00
2019-03-09T22:33:57.826Z,8.10
2019-03-09T22:36:27.563Z,8.10
2019-03-09T22:38:57.327Z,8.10
2019-03-09T22:41:26.994Z,8.10
2019-03-09T22:43:56.596Z,8.10
2019-03-09T22:46:26.277Z,8.10
2019-03-09T22:48:56.021Z,8.10
2019-03-09T22:51:25.789Z,8.10
2019-03-09T22:53:55.614Z,8.00
2019-03-09T22:56:25.313Z,8.00
2019-03-09T22:58:55.068Z,8.00
2019-03-09T23:01:25.928Z,8.00
2019-03-09T23:03:55.787Z,8.10
2019-03-09T23:06:25.712Z,8.10
2019-03-09T23:08:55.551Z,8.00
2019-03-09T23:11:25.333Z,8.10
2019-03-09T23:13:55.069Z,8.00
2019-03-09T23:16:25.044Z,8.00
2019-03-09T23:18:56.268Z,8.00
2019-03-09T23:21:26.032Z,8.10
2019-03-09T23:23:55.739Z,8.00
2019-03-09T23:26:25.566Z,8.00
2019-03-09T23:28:58.260Z,8.00
2019-03-09T23:31:27.959Z,8.00
2019-03-09T23:33:57.653Z,8.00
2019-03-09T23:36:27.436Z,8.00
2019-03-09T23:38:57.246Z,7.90
2019-03-09T23:41:26.971Z,7.90
2019-03-09T23:43:56.679Z,7.90
2019-03-09T23:46:26.486Z,7.90
2019-03-09T23:48:56.343Z,7.90
2019-03-09T23:51:26.129Z,7.90
2019-03-09T23:53:55.894Z,7.80
2019-03-09T23:56:25.602Z,7.90
2019-03-09T23:58:55.511Z,7.90
